sensor_id;sensor_type;location;lat;lon;timestamp;P1;durP1;ratioP1;P2;durP2;ratioP2
70459;SDS011;57920;54.796;9.430;2023-02-03T00:00:23;1.40;;;0.80;;
70459;SDS011;57920;54.796;9.430;2023-02-03T00:02:51;3.40;;;1.10;;
70459;SDS011;57920;54.796;9.430;2023-02-03T00:05:16;1.20;;;0.83;;
70459;SDS011;57920;54.796;9.430;2023-02-03T00:07:42;1.73;;;0.67;;
70459;SDS011;57920;54.796;9.430;2023-02-03T00:10:08;0.83;;;0.73;;
70459;SDS011;57920;54.796;9.430;2023-02-03T00:12:34;1.53;;;1.00;;
70459;SDS011;57920;54.796;9.430;2023-02-03T00:15:00;1.80;;;0.83;;
70459;SDS011;57920;54.796;9.430;2023-02-03T00:17:25;1.67;;;0.87;;
70459;SDS011;57920;54.796;9.430;2023-02-03T00:19:51;2.50;;;1.10;;
70459;SDS011;57920;54.796;9.430;2023-02-03T00:22:17;2.07;;;1.33;;
70459;SDS011;57920;54.796;9.430;2023-02-03T00:24:42;1.10;;;0.83;;
70459;SDS011;57920;54.796;9.430;2023-02-03T00:27:08;2.40;;;1.13;;
70459;SDS011;57920;54.796;9.430;2023-02-03T00:29:33;1.40;;;0.87;;
70459;SDS011;57920;54.796;9.430;2023-02-03T00:31:59;2.57;;;1.27;;
70459;SDS011;57920;54.796;9.430;2023-02-03T00:34:28;1.83;;;0.77;;
70459;SDS011;57920;54.796;9.430;2023-02-03T00:36:54;2.77;;;1.33;;
70459;SDS011;57920;54.796;9.430;2023-02-03T00:39:20;3.23;;;1.50;;
70459;SDS011;57920;54.796;9.430;2023-02-03T00:41:46;1.67;;;1.23;;
70459;SDS011;57920;54.796;9.430;2023-02-03T00:44:12;1.53;;;0.87;;
70459;SDS011;57920;54.796;9.430;2023-02-03T00:46:38;1.00;;;0.70;;
70459;SDS011;57920;54.796;9.430;2023-02-03T00:49:04;3.13;;;1.30;;
70459;SDS011;57920;54.796;9.430;2023-02-03T00:51:30;3.23;;;1.37;;
70459;SDS011;57920;54.796;9.430;2023-02-03T00:53:56;3.33;;;1.50;;
70459;SDS011;57920;54.796;9.430;2023-02-03T00:56:22;4.17;;;1.70;;
70459;SDS011;57920;54.796;9.430;2023-02-03T00:58:47;4.23;;;1.20;;
70459;SDS011;57920;54.796;9.430;2023-02-03T01:01:13;3.23;;;1.47;;
70459;SDS011;57920;54.796;9.430;2023-02-03T01:03:39;2.50;;;1.33;;
70459;SDS011;57920;54.796;9.430;2023-02-03T01:06:08;3.30;;;1.50;;
70459;SDS011;57920;54.796;9.430;2023-02-03T01:08:35;4.97;;;1.90;;
70459;SDS011;57920;54.796;9.430;2023-02-03T01:11:04;2.27;;;1.40;;
70459;SDS011;57920;54.796;9.430;2023-02-03T01:13:31;4.23;;;1.63;;
70459;SDS011;57920;54.796;9.430;2023-02-03T01:15:56;2.27;;;1.23;;
70459;SDS011;57920;54.796;9.430;2023-02-03T01:18:22;3.27;;;1.73;;
70459;SDS011;57920;54.796;9.430;2023-02-03T01:20:47;3.00;;;1.63;;
70459;SDS011;57920;54.796;9.430;2023-02-03T01:23:13;2.77;;;1.60;;
70459;SDS011;57920;54.796;9.430;2023-02-03T01:25:38;4.67;;;1.70;;
70459;SDS011;57920;54.796;9.430;2023-02-03T01:28:04;4.07;;;1.73;;
70459;SDS011;57920;54.796;9.430;2023-02-03T01:30:30;3.00;;;1.60;;
70459;SDS011;57920;54.796;9.430;2023-02-03T01:32:55;6.80;;;1.60;;
70459;SDS011;57920;54.796;9.430;2023-02-03T01:35:21;2.37;;;1.57;;
70459;SDS011;57920;54.796;9.430;2023-02-03T01:37:46;4.13;;;1.77;;
70459;SDS011;57920;54.796;9.430;2023-02-03T01:40:12;3.20;;;1.83;;
70459;SDS011;57920;54.796;9.430;2023-02-03T01:42:38;3.37;;;1.80;;
70459;SDS011;57920;54.796;9.430;2023-02-03T01:45:03;4.07;;;2.00;;
70459;SDS011;57920;54.796;9.430;2023-02-03T01:47:33;2.27;;;1.47;;
70459;SDS011;57920;54.796;9.430;2023-02-03T01:50:20;2.93;;;1.83;;
70459;SDS011;57920;54.796;9.430;2023-02-03T01:52:55;3.70;;;2.00;;
70459;SDS011;57920;54.796;9.430;2023-02-03T01:55:25;5.13;;;2.00;;
70459;SDS011;57920;54.796;9.430;2023-02-03T01:57:58;6.87;;;2.00;;
70459;SDS011;57920;54.796;9.430;2023-02-03T02:00:32;3.00;;;1.77;;
70459;SDS011;57920;54.796;9.430;2023-02-03T02:02:58;5.90;;;1.90;;
70459;SDS011;57920;54.796;9.430;2023-02-03T02:05:46;5.07;;;2.20;;
70459;SDS011;57920;54.796;9.430;2023-02-03T02:08:14;2.33;;;1.67;;
70459;SDS011;57920;54.796;9.430;2023-02-03T02:10:42;3.10;;;1.60;;
70459;SDS011;57920;54.796;9.430;2023-02-03T02:13:08;4.60;;;1.87;;
70459;SDS011;57920;54.796;9.430;2023-02-03T02:15:44;3.00;;;1.43;;
70459;SDS011;57920;54.796;9.430;2023-02-03T02:21:18;2.13;;;1.70;;
70459;SDS011;57920;54.796;9.430;2023-02-03T02:27:06;4.13;;;1.77;;
70459;SDS011;57920;54.796;9.430;2023-02-03T02:29:59;3.83;;;1.50;;
70459;SDS011;57920;54.796;9.430;2023-02-03T02:40:08;5.97;;;1.93;;
70459;SDS011;57920;54.796;9.430;2023-02-03T02:42:59;3.07;;;1.30;;
70459;SDS011;57920;54.796;9.430;2023-02-03T02:45:31;3.07;;;1.77;;
70459;SDS011;57920;54.796;9.430;2023-02-03T02:48:25;4.20;;;1.73;;
70459;SDS011;57920;54.796;9.430;2023-02-03T02:51:13;2.33;;;1.47;;
70459;SDS011;57920;54.796;9.430;2023-02-03T02:54:14;4.20;;;2.00;;
70459;SDS011;57920;54.796;9.430;2023-02-03T02:56:35;2.67;;;1.60;;
70459;SDS011;57920;54.796;9.430;2023-02-03T02:59:04;3.80;;;2.07;;
70459;SDS011;57920;54.796;9.430;2023-02-03T03:01:31;3.43;;;1.83;;
70459;SDS011;57920;54.796;9.430;2023-02-03T03:03:57;3.70;;;1.73;;
70459;SDS011;57920;54.796;9.430;2023-02-03T03:06:34;4.10;;;1.70;;
70459;SDS011;57920;54.796;9.430;2023-02-03T03:09:19;6.07;;;2.47;;
70459;SDS011;57920;54.796;9.430;2023-02-03T03:11:58;3.57;;;1.97;;
70459;SDS011;57920;54.796;9.430;2023-02-03T03:14:34;4.97;;;1.70;;
70459;SDS011;57920;54.796;9.430;2023-02-03T03:17:05;5.43;;;2.10;;
70459;SDS011;57920;54.796;9.430;2023-02-03T03:19:36;4.13;;;1.90;;
70459;SDS011;57920;54.796;9.430;2023-02-03T03:22:05;3.10;;;1.80;;
70459;SDS011;57920;54.796;9.430;2023-02-03T03:24:33;4.43;;;1.70;;
70459;SDS011;57920;54.796;9.430;2023-02-03T03:27:22;3.47;;;1.67;;
70459;SDS011;57920;54.796;9.430;2023-02-03T03:29:52;3.77;;;1.83;;
70459;SDS011;57920;54.796;9.430;2023-02-03T03:32:19;3.57;;;1.87;;
70459;SDS011;57920;54.796;9.430;2023-02-03T03:34:45;1.67;;;1.30;;
70459;SDS011;57920;54.796;9.430;2023-02-03T03:37:17;2.80;;;1.70;;
70459;SDS011;57920;54.796;9.430;2023-02-03T03:40:11;3.10;;;1.80;;
70459;SDS011;57920;54.796;9.430;2023-02-03T03:43:02;3.13;;;1.60;;
70459;SDS011;57920;54.796;9.430;2023-02-03T03:48:28;3.97;;;2.17;;
70459;SDS011;57920;54.796;9.430;2023-02-03T03:51:07;5.17;;;2.10;;
70459;SDS011;57920;54.796;9.430;2023-02-03T03:53:55;3.33;;;1.60;;
70459;SDS011;57920;54.796;9.430;2023-02-03T03:56:27;3.43;;;1.67;;
70459;SDS011;57920;54.796;9.430;2023-02-03T03:58:58;5.17;;;2.23;;
70459;SDS011;57920;54.796;9.430;2023-02-03T04:01:27;4.73;;;1.90;;
70459;SDS011;57920;54.796;9.430;2023-02-03T04:03:56;3.87;;;1.90;;
70459;SDS011;57920;54.796;9.430;2023-02-03T04:06:26;2.80;;;1.50;;
70459;SDS011;57920;54.796;9.430;2023-02-03T04:08:51;3.37;;;1.63;;
70459;SDS011;57920;54.796;9.430;2023-02-03T04:11:17;6.50;;;2.20;;
70459;SDS011;57920;54.796;9.430;2023-02-03T04:14:01;3.47;;;2.17;;
70459;SDS011;57920;54.796;9.430;2023-02-03T04:16:27;5.47;;;2.20;;
70459;SDS011;57920;54.796;9.430;2023-02-03T04:18:53;4.40;;;2.43;;
70459;SDS011;57920;54.796;9.430;2023-02-03T04:21:21;5.80;;;1.90;;
70459;SDS011;57920;54.796;9.430;2023-02-03T04:23:47;5.90;;;2.13;;
70459;SDS011;57920;54.796;9.430;2023-02-03T04:26:13;6.83;;;2.17;;
70459;SDS011;57920;54.796;9.430;2023-02-03T04:28:38;4.27;;;2.10;;
70459;SDS011;57920;54.796;9.430;2023-02-03T04:31:04;4.00;;;2.10;;
70459;SDS011;57920;54.796;9.430;2023-02-03T04:33:29;4.43;;;1.97;;
70459;SDS011;57920;54.796;9.430;2023-02-03T04:35:55;4.37;;;2.17;;
70459;SDS011;57920;54.796;9.430;2023-02-03T04:38:20;5.73;;;2.23;;
70459;SDS011;57920;54.796;9.430;2023-02-03T04:40:46;5.37;;;2.70;;
70459;SDS011;57920;54.796;9.430;2023-02-03T04:43:12;5.60;;;2.27;;
70459;SDS011;57920;54.796;9.430;2023-02-03T04:45:38;5.07;;;2.40;;
70459;SDS011;57920;54.796;9.430;2023-02-03T04:48:04;5.43;;;1.77;;
70459;SDS011;57920;54.796;9.430;2023-02-03T04:50:30;6.03;;;2.50;;
70459;SDS011;57920;54.796;9.430;2023-02-03T04:52:56;4.40;;;2.13;;
70459;SDS011;57920;54.796;9.430;2023-02-03T04:55:25;5.37;;;2.63;;
70459;SDS011;57920;54.796;9.430;2023-02-03T04:57:58;5.27;;;2.10;;
70459;SDS011;57920;54.796;9.430;2023-02-03T05:00:24;4.73;;;2.13;;
70459;SDS011;57920;54.796;9.430;2023-02-03T05:02:51;4.03;;;1.73;;
70459;SDS011;57920;54.796;9.430;2023-02-03T05:05:17;3.53;;;1.97;;
70459;SDS011;57920;54.796;9.430;2023-02-03T05:07:43;5.73;;;2.33;;
70459;SDS011;57920;54.796;9.430;2023-02-03T05:10:09;4.23;;;2.20;;
70459;SDS011;57920;54.796;9.430;2023-02-03T05:12:35;5.83;;;2.00;;
70459;SDS011;57920;54.796;9.430;2023-02-03T05:15:00;4.80;;;1.90;;
70459;SDS011;57920;54.796;9.430;2023-02-03T05:17:26;5.57;;;2.20;;
70459;SDS011;57920;54.796;9.430;2023-02-03T05:19:52;5.67;;;2.13;;
70459;SDS011;57920;54.796;9.430;2023-02-03T05:22:17;3.50;;;1.87;;
70459;SDS011;57920;54.796;9.430;2023-02-03T05:24:43;6.80;;;2.37;;
70459;SDS011;57920;54.796;9.430;2023-02-03T05:27:08;4.23;;;1.93;;
70459;SDS011;57920;54.796;9.430;2023-02-03T05:29:34;5.27;;;2.20;;
70459;SDS011;57920;54.796;9.430;2023-02-03T05:32:00;7.70;;;3.03;;
70459;SDS011;57920;54.796;9.430;2023-02-03T05:34:25;4.63;;;2.10;;
70459;SDS011;57920;54.796;9.430;2023-02-03T05:36:51;5.50;;;2.27;;
70459;SDS011;57920;54.796;9.430;2023-02-03T05:39:16;4.07;;;2.10;;
70459;SDS011;57920;54.796;9.430;2023-02-03T05:41:42;5.60;;;2.60;;
70459;SDS011;57920;54.796;9.430;2023-02-03T05:44:17;3.97;;;2.57;;
70459;SDS011;57920;54.796;9.430;2023-02-03T05:47:01;5.90;;;2.30;;
70459;SDS011;57920;54.796;9.430;2023-02-03T05:49:26;6.87;;;2.07;;
70459;SDS011;57920;54.796;9.430;2023-02-03T05:51:52;5.67;;;3.00;;
70459;SDS011;57920;54.796;9.430;2023-02-03T05:54:19;4.77;;;2.17;;
70459;SDS011;57920;54.796;9.430;2023-02-03T05:56:44;6.83;;;2.67;;
70459;SDS011;57920;54.796;9.430;2023-02-03T05:59:10;5.47;;;2.37;;
70459;SDS011;57920;54.796;9.430;2023-02-03T06:01:35;4.73;;;2.63;;
70459;SDS011;57920;54.796;9.430;2023-02-03T06:04:02;4.93;;;2.37;;
70459;SDS011;57920;54.796;9.430;2023-02-03T06:06:28;3.80;;;1.87;;
70459;SDS011;57920;54.796;9.430;2023-02-03T06:09:01;6.53;;;2.63;;
70459;SDS011;57920;54.796;9.430;2023-02-03T06:11:31;5.00;;;2.60;;
70459;SDS011;57920;54.796;9.430;2023-02-03T06:13:57;5.60;;;2.57;;
70459;SDS011;57920;54.796;9.430;2023-02-03T06:16:24;4.40;;;2.50;;
70459;SDS011;57920;54.796;9.430;2023-02-03T06:18:51;7.93;;;2.43;;
70459;SDS011;57920;54.796;9.430;2023-02-03T06:21:18;5.50;;;2.80;;
70459;SDS011;57920;54.796;9.430;2023-02-03T06:23:44;8.50;;;2.70;;
70459;SDS011;57920;54.796;9.430;2023-02-03T06:26:09;6.60;;;2.63;;
70459;SDS011;57920;54.796;9.430;2023-02-03T06:28:35;4.60;;;2.60;;
70459;SDS011;57920;54.796;9.430;2023-02-03T06:31:02;6.70;;;2.17;;
70459;SDS011;57920;54.796;9.430;2023-02-03T06:33:28;3.77;;;2.20;;
70459;SDS011;57920;54.796;9.430;2023-02-03T06:35:54;3.43;;;1.93;;
70459;SDS011;57920;54.796;9.430;2023-02-03T06:38:19;6.03;;;2.90;;
70459;SDS011;57920;54.796;9.430;2023-02-03T06:40:45;6.10;;;2.20;;
70459;SDS011;57920;54.796;9.430;2023-02-03T06:43:11;6.20;;;2.77;;
70459;SDS011;57920;54.796;9.430;2023-02-03T06:45:37;7.50;;;3.20;;
70459;SDS011;57920;54.796;9.430;2023-02-03T06:48:12;5.73;;;2.87;;
70459;SDS011;57920;54.796;9.430;2023-02-03T06:50:38;6.10;;;2.33;;
70459;SDS011;57920;54.796;9.430;2023-02-03T06:53:04;8.17;;;3.10;;
70459;SDS011;57920;54.796;9.430;2023-02-03T06:55:29;10.47;;;4.03;;
70459;SDS011;57920;54.796;9.430;2023-02-03T06:57:55;24.20;;;5.30;;
70459;SDS011;57920;54.796;9.430;2023-02-03T07:00:20;24.00;;;5.77;;
70459;SDS011;57920;54.796;9.430;2023-02-03T07:02:51;28.77;;;5.37;;
70459;SDS011;57920;54.796;9.430;2023-02-03T07:05:18;14.50;;;4.03;;
70459;SDS011;57920;54.796;9.430;2023-02-03T07:07:43;20.10;;;5.50;;
70459;SDS011;57920;54.796;9.430;2023-02-03T07:10:09;10.60;;;3.67;;
70459;SDS011;57920;54.796;9.430;2023-02-03T07:12:34;11.33;;;4.67;;
70459;SDS011;57920;54.796;9.430;2023-02-03T07:15:00;16.27;;;4.13;;
70459;SDS011;57920;54.796;9.430;2023-02-03T07:17:27;20.93;;;4.87;;
70459;SDS011;57920;54.796;9.430;2023-02-03T07:20:02;11.03;;;4.00;;
70459;SDS011;57920;54.796;9.430;2023-02-03T07:22:28;17.67;;;5.50;;
70459;SDS011;57920;54.796;9.430;2023-02-03T07:24:53;13.57;;;4.20;;
70459;SDS011;57920;54.796;9.430;2023-02-03T07:27:19;22.73;;;5.00;;
70459;SDS011;57920;54.796;9.430;2023-02-03T07:29:45;12.20;;;4.43;;
70459;SDS011;57920;54.796;9.430;2023-02-03T07:32:10;14.07;;;4.50;;
70459;SDS011;57920;54.796;9.430;2023-02-03T07:34:36;15.63;;;5.20;;
70459;SDS011;57920;54.796;9.430;2023-02-03T07:37:01;16.33;;;3.97;;
70459;SDS011;57920;54.796;9.430;2023-02-03T07:39:27;30.13;;;6.97;;
70459;SDS011;57920;54.796;9.430;2023-02-03T07:41:52;74.03;;;15.50;;
70459;SDS011;57920;54.796;9.430;2023-02-03T07:44:18;204.27;;;30.97;;
70459;SDS011;57920;54.796;9.430;2023-02-03T07:46:43;342.30;;;48.83;;
70459;SDS011;57920;54.796;9.430;2023-02-03T07:49:12;440.67;;;66.20;;
70459;SDS011;57920;54.796;9.430;2023-02-03T07:51:38;504.47;;;81.13;;
70459;SDS011;57920;54.796;9.430;2023-02-03T07:54:04;432.80;;;64.60;;
70459;SDS011;57920;54.796;9.430;2023-02-03T07:56:30;1200.23;;;193.20;;
70459;SDS011;57920;54.796;9.430;2023-02-03T07:58:57;1591.77;;;299.60;;
70459;SDS011;57920;54.796;9.430;2023-02-03T08:01:23;1999.90;;;587.67;;
70459;SDS011;57920;54.796;9.430;2023-02-03T08:03:49;1375.23;;;283.50;;
70459;SDS011;57920;54.796;9.430;2023-02-03T08:06:15;316.53;;;59.13;;
70459;SDS011;57920;54.796;9.430;2023-02-03T08:08:41;82.63;;;21.63;;
70459;SDS011;57920;54.796;9.430;2023-02-03T08:11:07;84.17;;;20.70;;
70459;SDS011;57920;54.796;9.430;2023-02-03T08:13:33;65.47;;;16.23;;
70459;SDS011;57920;54.796;9.430;2023-02-03T08:15:59;39.50;;;10.60;;
70459;SDS011;57920;54.796;9.430;2023-02-03T08:18:30;56.90;;;15.40;;
70459;SDS011;57920;54.796;9.430;2023-02-03T08:20:55;47.83;;;12.83;;
70459;SDS011;57920;54.796;9.430;2023-02-03T08:23:21;99.93;;;18.07;;
70459;SDS011;57920;54.796;9.430;2023-02-03T08:25:50;95.50;;;18.20;;
70459;SDS011;57920;54.796;9.430;2023-02-03T08:28:16;108.90;;;21.07;;
70459;SDS011;57920;54.796;9.430;2023-02-03T08:30:42;67.60;;;16.07;;
70459;SDS011;57920;54.796;9.430;2023-02-03T08:33:07;99.23;;;22.33;;
70459;SDS011;57920;54.796;9.430;2023-02-03T08:35:33;57.20;;;16.90;;
70459;SDS011;57920;54.796;9.430;2023-02-03T08:37:59;85.90;;;18.50;;
70459;SDS011;57920;54.796;9.430;2023-02-03T08:40:24;66.93;;;18.27;;
70459;SDS011;57920;54.796;9.430;2023-02-03T08:42:50;62.10;;;17.13;;
70459;SDS011;57920;54.796;9.430;2023-02-03T08:45:15;75.87;;;18.23;;
70459;SDS011;57920;54.796;9.430;2023-02-03T08:47:47;55.37;;;13.73;;
70459;SDS011;57920;54.796;9.430;2023-02-03T08:50:13;51.50;;;16.00;;
70459;SDS011;57920;54.796;9.430;2023-02-03T08:52:39;56.07;;;15.27;;
70459;SDS011;57920;54.796;9.430;2023-02-03T08:55:04;47.77;;;14.90;;
70459;SDS011;57920;54.796;9.430;2023-02-03T08:57:31;60.10;;;16.20;;
70459;SDS011;57920;54.796;9.430;2023-02-03T08:59:58;83.33;;;19.30;;
70459;SDS011;57920;54.796;9.430;2023-02-03T09:02:23;106.07;;;19.50;;
70459;SDS011;57920;54.796;9.430;2023-02-03T09:04:49;129.53;;;23.60;;
70459;SDS011;57920;54.796;9.430;2023-02-03T09:07:15;149.20;;;29.93;;
70459;SDS011;57920;54.796;9.430;2023-02-03T09:09:41;419.30;;;75.23;;
70459;SDS011;57920;54.796;9.430;2023-02-03T09:12:07;485.93;;;88.03;;
70459;SDS011;57920;54.796;9.430;2023-02-03T09:14:35;500.70;;;85.10;;
70459;SDS011;57920;54.796;9.430;2023-02-03T09:17:01;665.87;;;110.00;;
70459;SDS011;57920;54.796;9.430;2023-02-03T09:19:28;563.53;;;100.40;;
70459;SDS011;57920;54.796;9.430;2023-02-03T09:21:55;581.67;;;95.97;;
70459;SDS011;57920;54.796;9.430;2023-02-03T09:24:21;542.10;;;91.10;;
70459;SDS011;57920;54.796;9.430;2023-02-03T09:26:47;492.90;;;82.80;;
70459;SDS011;57920;54.796;9.430;2023-02-03T09:29:12;430.27;;;78.97;;
70459;SDS011;57920;54.796;9.430;2023-02-03T09:31:38;450.03;;;80.57;;
70459;SDS011;57920;54.796;9.430;2023-02-03T09:34:04;718.40;;;129.87;;
70459;SDS011;57920;54.796;9.430;2023-02-03T09:36:29;806.90;;;158.80;;
70459;SDS011;57920;54.796;9.430;2023-02-03T09:38:55;807.37;;;171.70;;
70459;SDS011;57920;54.796;9.430;2023-02-03T09:46:45;612.80;;;130.57;;
70459;SDS011;57920;54.796;9.430;2023-02-03T09:54:52;391.20;;;91.47;;
70459;SDS011;57920;54.796;9.430;2023-02-03T09:57:23;373.20;;;84.07;;
70459;SDS011;57920;54.796;9.430;2023-02-03T09:59:51;404.50;;;95.17;;
70459;SDS011;57920;54.796;9.430;2023-02-03T10:16:37;251.00;;;63.63;;
70459;SDS011;57920;54.796;9.430;2023-02-03T10:19:28;198.60;;;52.03;;
70459;SDS011;57920;54.796;9.430;2023-02-03T10:22:12;170.67;;;46.87;;
70459;SDS011;57920;54.796;9.430;2023-02-03T10:24:47;195.13;;;54.50;;
70459;SDS011;57920;54.796;9.430;2023-02-03T10:27:21;187.90;;;48.37;;
70459;SDS011;57920;54.796;9.430;2023-02-03T10:30:18;167.67;;;47.57;;
70459;SDS011;57920;54.796;9.430;2023-02-03T10:32:40;166.60;;;41.50;;
70459;SDS011;57920;54.796;9.430;2023-02-03T10:35:12;259.47;;;56.10;;
70459;SDS011;57920;54.796;9.430;2023-02-03T10:37:46;223.97;;;50.40;;
70459;SDS011;57920;54.796;9.430;2023-02-03T10:40:15;235.13;;;54.03;;
70459;SDS011;57920;54.796;9.430;2023-02-03T10:42:46;216.57;;;52.07;;
70459;SDS011;57920;54.796;9.430;2023-02-03T10:45:33;157.40;;;40.50;;
70459;SDS011;57920;54.796;9.430;2023-02-03T10:48:02;177.87;;;44.87;;
70459;SDS011;57920;54.796;9.430;2023-02-03T10:50:31;135.33;;;39.50;;
70459;SDS011;57920;54.796;9.430;2023-02-03T10:55:47;119.17;;;35.33;;
70459;SDS011;57920;54.796;9.430;2023-02-03T10:58:34;132.77;;;34.70;;
70459;SDS011;57920;54.796;9.430;2023-02-03T11:01:10;99.40;;;30.10;;
70459;SDS011;57920;54.796;9.430;2023-02-03T11:03:40;89.97;;;28.67;;
70459;SDS011;57920;54.796;9.430;2023-02-03T11:06:14;85.20;;;26.47;;
70459;SDS011;57920;54.796;9.430;2023-02-03T11:08:43;73.53;;;25.33;;
70459;SDS011;57920;54.796;9.430;2023-02-03T11:11:21;70.50;;;24.83;;
70459;SDS011;57920;54.796;9.430;2023-02-03T11:14:31;81.47;;;26.33;;
70459;SDS011;57920;54.796;9.430;2023-02-03T11:16:40;71.90;;;19.17;;
70459;SDS011;57920;54.796;9.430;2023-02-03T11:19:17;77.43;;;22.53;;
70459;SDS011;57920;54.796;9.430;2023-02-03T11:21:46;82.70;;;22.63;;
70459;SDS011;57920;54.796;9.430;2023-02-03T11:24:25;223.37;;;47.13;;
70459;SDS011;57920;54.796;9.430;2023-02-03T11:29:23;211.53;;;47.87;;
70459;SDS011;57920;54.796;9.430;2023-02-03T11:31:55;152.07;;;40.43;;
70459;SDS011;57920;54.796;9.430;2023-02-03T11:34:29;126.57;;;35.13;;
70459;SDS011;57920;54.796;9.430;2023-02-03T11:37:09;136.07;;;34.87;;
70459;SDS011;57920;54.796;9.430;2023-02-03T11:39:50;90.53;;;26.50;;
70459;SDS011;57920;54.796;9.430;2023-02-03T11:42:21;98.87;;;29.07;;
70459;SDS011;57920;54.796;9.430;2023-02-03T11:44:48;94.93;;;28.53;;
70459;SDS011;57920;54.796;9.430;2023-02-03T11:47:14;83.07;;;27.67;;
70459;SDS011;57920;54.796;9.430;2023-02-03T11:55:49;56.30;;;19.97;;
70459;SDS011;57920;54.796;9.430;2023-02-03T12:04:20;50.83;;;16.50;;
70459;SDS011;57920;54.796;9.430;2023-02-03T12:18:14;33.40;;;14.43;;
70459;SDS011;57920;54.796;9.430;2023-02-03T12:28:51;46.13;;;16.00;;
70459;SDS011;57920;54.796;9.430;2023-02-03T12:31:46;32.23;;;12.47;;
70459;SDS011;57920;54.796;9.430;2023-02-03T12:34:45;29.27;;;12.40;;
70459;SDS011;57920;54.796;9.430;2023-02-03T12:37:45;29.53;;;12.40;;
70459;SDS011;57920;54.796;9.430;2023-02-03T12:41:33;45.13;;;19.27;;
70459;SDS011;57920;54.796;9.430;2023-02-03T12:43:51;72.03;;;22.20;;
70459;SDS011;57920;54.796;9.430;2023-02-03T12:46:23;60.57;;;23.93;;
70459;SDS011;57920;54.796;9.430;2023-02-03T12:52:04;53.50;;;19.17;;
70459;SDS011;57920;54.796;9.430;2023-02-03T12:57:36;71.47;;;20.73;;
70459;SDS011;57920;54.796;9.430;2023-02-03T13:02:55;76.67;;;24.93;;
70459;SDS011;57920;54.796;9.430;2023-02-03T13:08:28;67.07;;;18.53;;
70459;SDS011;57920;54.796;9.430;2023-02-03T13:16:43;40.53;;;14.63;;
70459;SDS011;57920;54.796;9.430;2023-02-03T13:19:17;45.60;;;16.43;;
70459;SDS011;57920;54.796;9.430;2023-02-03T13:21:49;176.30;;;35.47;;
70459;SDS011;57920;54.796;9.430;2023-02-03T13:24:15;306.30;;;41.37;;
70459;SDS011;57920;54.796;9.430;2023-02-03T13:27:28;147.60;;;29.70;;
70459;SDS011;57920;54.796;9.430;2023-02-03T13:32:42;160.23;;;28.83;;
70459;SDS011;57920;54.796;9.430;2023-02-03T13:35:20;99.13;;;22.67;;
70459;SDS011;57920;54.796;9.430;2023-02-03T13:38:12;101.60;;;19.67;;
70459;SDS011;57920;54.796;9.430;2023-02-03T13:40:50;81.30;;;18.90;;
70459;SDS011;57920;54.796;9.430;2023-02-03T13:43:23;78.63;;;19.67;;
70459;SDS011;57920;54.796;9.430;2023-02-03T13:45:53;73.60;;;19.03;;
70459;SDS011;57920;54.796;9.430;2023-02-03T13:48:20;73.70;;;16.33;;
70459;SDS011;57920;54.796;9.430;2023-02-03T13:51:04;55.23;;;15.17;;
70459;SDS011;57920;54.796;9.430;2023-02-03T13:53:38;59.97;;;15.43;;
70459;SDS011;57920;54.796;9.430;2023-02-03T13:56:07;52.63;;;15.70;;
70459;SDS011;57920;54.796;9.430;2023-02-03T13:58:57;52.07;;;13.57;;
70459;SDS011;57920;54.796;9.430;2023-02-03T14:03:58;36.17;;;13.20;;
70459;SDS011;57920;54.796;9.430;2023-02-03T14:09:22;35.97;;;11.27;;
70459;SDS011;57920;54.796;9.430;2023-02-03T14:12:11;31.93;;;9.80;;
70459;SDS011;57920;54.796;9.430;2023-02-03T14:17:02;29.50;;;9.27;;
70459;SDS011;57920;54.796;9.430;2023-02-03T14:24:21;28.33;;;9.37;;
70459;SDS011;57920;54.796;9.430;2023-02-03T14:26:51;19.83;;;7.70;;
70459;SDS011;57920;54.796;9.430;2023-02-03T14:29:33;26.63;;;9.47;;
70459;SDS011;57920;54.796;9.430;2023-02-03T14:32:00;27.37;;;9.37;;
70459;SDS011;57920;54.796;9.430;2023-02-03T14:34:35;21.97;;;8.10;;
70459;SDS011;57920;54.796;9.430;2023-02-03T14:37:20;28.03;;;9.23;;
70459;SDS011;57920;54.796;9.430;2023-02-03T14:40:07;19.73;;;7.77;;
70459;SDS011;57920;54.796;9.430;2023-02-03T14:42:44;20.17;;;8.17;;
70459;SDS011;57920;54.796;9.430;2023-02-03T14:45:46;19.13;;;7.20;;
70459;SDS011;57920;54.796;9.430;2023-02-03T14:56:46;15.80;;;6.67;;
70459;SDS011;57920;54.796;9.430;2023-02-03T15:02:26;18.30;;;7.83;;
70459;SDS011;57920;54.796;9.430;2023-02-03T15:07:48;11.67;;;5.30;;
70459;SDS011;57920;54.796;9.430;2023-02-03T15:10:20;17.37;;;6.83;;
70459;SDS011;57920;54.796;9.430;2023-02-03T15:12:54;11.73;;;6.10;;
70459;SDS011;57920;54.796;9.430;2023-02-03T15:15:26;17.67;;;7.20;;
70459;SDS011;57920;54.796;9.430;2023-02-03T15:17:53;16.20;;;6.73;;
70459;SDS011;57920;54.796;9.430;2023-02-03T15:22:58;17.93;;;6.53;;
70459;SDS011;57920;54.796;9.430;2023-02-03T15:25:24;14.43;;;5.93;;
70459;SDS011;57920;54.796;9.430;2023-02-03T15:27:52;13.67;;;5.77;;
70459;SDS011;57920;54.796;9.430;2023-02-03T15:35:32;9.83;;;4.80;;
70459;SDS011;57920;54.796;9.430;2023-02-03T15:38:01;10.93;;;4.93;;
70459;SDS011;57920;54.796;9.430;2023-02-03T15:40:33;8.57;;;3.93;;
70459;SDS011;57920;54.796;9.430;2023-02-03T15:45:48;9.97;;;5.43;;
70459;SDS011;57920;54.796;9.430;2023-02-03T15:48:30;9.73;;;4.90;;
70459;SDS011;57920;54.796;9.430;2023-02-03T15:51:09;11.10;;;5.10;;
70459;SDS011;57920;54.796;9.430;2023-02-03T15:56:36;6.30;;;4.03;;
70459;SDS011;57920;54.796;9.430;2023-02-03T15:59:18;12.00;;;5.20;;
70459;SDS011;57920;54.796;9.430;2023-02-03T16:01:46;6.40;;;3.43;;
70459;SDS011;57920;54.796;9.430;2023-02-03T16:04:12;8.30;;;4.10;;
70459;SDS011;57920;54.796;9.430;2023-02-03T16:06:38;9.17;;;3.47;;
70459;SDS011;57920;54.796;9.430;2023-02-03T16:09:24;10.57;;;4.23;;
70459;SDS011;57920;54.796;9.430;2023-02-03T16:12:04;7.60;;;3.43;;
70459;SDS011;57920;54.796;9.430;2023-02-03T16:14:47;11.33;;;4.00;;
70459;SDS011;57920;54.796;9.430;2023-02-03T16:22:44;8.30;;;4.03;;
70459;SDS011;57920;54.796;9.430;2023-02-03T16:25:31;7.30;;;3.33;;
70459;SDS011;57920;54.796;9.430;2023-02-03T16:28:03;7.03;;;3.40;;
70459;SDS011;57920;54.796;9.430;2023-02-03T16:31:02;5.87;;;2.83;;
70459;SDS011;57920;54.796;9.430;2023-02-03T16:34:04;8.53;;;3.13;;
70459;SDS011;57920;54.796;9.430;2023-02-03T16:36:59;10.17;;;3.10;;
70459;SDS011;57920;54.796;9.430;2023-02-03T16:39:44;5.90;;;3.17;;
70459;SDS011;57920;54.796;9.430;2023-02-03T16:42:35;7.57;;;3.63;;
70459;SDS011;57920;54.796;9.430;2023-02-03T16:45:21;7.10;;;2.97;;
70459;SDS011;57920;54.796;9.430;2023-02-03T16:48:05;7.10;;;2.87;;
70459;SDS011;57920;54.796;9.430;2023-02-03T16:50:51;8.57;;;3.47;;
70459;SDS011;57920;54.796;9.430;2023-02-03T16:53:22;6.10;;;3.03;;
70459;SDS011;57920;54.796;9.430;2023-02-03T16:55:53;8.83;;;3.43;;
70459;SDS011;57920;54.796;9.430;2023-02-03T16:58:21;6.23;;;2.37;;
70459;SDS011;57920;54.796;9.430;2023-02-03T17:00:47;6.93;;;2.80;;
70459;SDS011;57920;54.796;9.430;2023-02-03T17:03:19;5.23;;;2.30;;
70459;SDS011;57920;54.796;9.430;2023-02-03T17:05:49;4.83;;;2.70;;
70459;SDS011;57920;54.796;9.430;2023-02-03T17:08:16;4.47;;;2.50;;
70459;SDS011;57920;54.796;9.430;2023-02-03T17:10:44;6.97;;;2.77;;
70459;SDS011;57920;54.796;9.430;2023-02-03T17:13:12;5.63;;;3.10;;
70459;SDS011;57920;54.796;9.430;2023-02-03T17:15:43;6.60;;;2.40;;
70459;SDS011;57920;54.796;9.430;2023-02-03T17:18:10;6.47;;;2.10;;
70459;SDS011;57920;54.796;9.430;2023-02-03T17:20:38;3.97;;;2.07;;
70459;SDS011;57920;54.796;9.430;2023-02-03T17:23:05;5.37;;;2.53;;